Time;durP1;ratioP1;P1;durP2;ratioP2;P2;SDS_P1;SDS_P2;PMS_P1;PMS_P2;Temp;Humidity;BMP_temperature;BMP_pressure;BME280_temperature;BME280_humidity;BME280_pressure;Samples;Min_cycle;Max_cycle;Signal;HPM_P1;HPM_P2
2023/08/07 00:00:52;;;;;;;6.05;2.60;;;15.20;99.90;;;;;;5029769;28;20046;-83
2023/08/07 00:03:19;;;;;;;6.15;2.50;;;15.10;99.90;;;;;;5013711;28;20133;-83
2023/08/07 00:05:46;;;;;;;6.50;2.20;;;15.20;99.90;;;;;;5030023;28;20044;-83
2023/08/07 00:08:13;;;;;;;4.15;2.13;;;15.10;99.90;;;;;;5029725;28;20623;-84
2023/08/07 00:10:40;;;;;;;5.60;2.20;;;15.10;99.90;;;;;;5029753;28;20049;-83
2023/08/07 00:13:07;;;;;;;4.53;1.90;;;15.10;99.90;;;;;;5029535;28;20037;-84
2023/08/07 00:15:33;;;;;;;4.15;1.95;;;15.10;99.90;;;;;;5029809;28;20042;-84
2023/08/07 00:18:00;;;;;;;3.25;1.70;;;15.10;99.90;;;;;;5029667;28;20038;-84
2023/08/07 00:20:27;;;;;;;4.80;1.80;;;15.10;99.90;;;;;;5013405;28;20052;-83
2023/08/07 00:22:54;;;;;;;6.10;2.00;;;15.10;99.90;;;;;;5029646;28;20042;-83
2023/08/07 00:25:20;;;;;;;6.88;1.98;;;15.20;99.90;;;;;;5029964;28;20045;-84
2023/08/07 00:27:47;;;;;;;4.15;1.92;;;15.10;99.90;;;;;;5013446;28;20108;-83
2023/08/07 00:30:14;;;;;;;4.75;2.10;;;15.10;99.90;;;;;;5045968;28;20052;-84
2023/08/07 00:32:41;;;;;;;7.07;1.90;;;15.10;99.90;;;;;;5029655;28;20037;-83
2023/08/07 00:35:10;;;;;;;5.00;1.83;;;15.10;99.90;;;;;;5029457;28;20073;-84
2023/08/07 00:37:37;;;;;;;5.70;2.08;;;15.10;99.90;;;;;;5029485;28;20124;-83
2023/08/07 00:40:04;;;;;;;5.45;2.47;;;15.10;99.90;;;;;;5044955;28;20132;-83
2023/08/07 00:42:31;;;;;;;8.80;2.30;;;15.00;99.90;;;;;;5045671;28;20038;-83
2023/08/07 00:44:57;;;;;;;4.43;1.92;;;15.00;99.90;;;;;;5029484;28;20048;-83
2023/08/07 00:47:26;;;;;;;5.93;2.30;;;15.00;99.90;;;;;;5013367;28;20128;-83
2023/08/07 00:49:52;;;;;;;4.72;2.65;;;15.00;99.90;;;;;;5029594;28;20055;-83
2023/08/07 00:52:19;;;;;;;4.40;2.17;;;15.00;99.90;;;;;;5028909;28;20042;-83
2023/08/07 00:54:46;;;;;;;4.45;2.17;;;15.00;99.90;;;;;;5029105;28;20083;-83
2023/08/07 00:57:16;;;;;;;4.72;2.30;;;15.00;99.90;;;;;;5028929;28;20034;-83
2023/08/07 00:59:44;;;;;;;6.78;2.40;;;15.00;99.90;;;;;;5029591;28;20030;-83
2023/08/07 01:02:13;;;;;;;5.72;2.22;;;15.00;99.90;;;;;;5028941;28;20038;-82
2023/08/07 01:04:40;;;;;;;5.18;2.35;;;15.10;99.90;;;;;;5029116;28;20547;-82
2023/08/07 01:07:07;;;;;;;4.15;2.20;;;15.10;99.90;;;;;;5028862;28;20125;-82
2023/08/07 01:09:34;;;;;;;4.13;2.08;;;15.00;99.90;;;;;;5045236;28;20477;-82
2023/08/07 01:12:24;;;;;;;6.50;2.25;;;15.00;99.90;;;;;;5045563;28;20095;-82
2023/08/07 01:15:01;;;;;;;3.92;2.00;;;15.00;99.90;;;;;;5045342;28;20092;-82
2023/08/07 01:17:28;;;;;;;6.00;2.05;;;15.00;99.90;;;;;;5029250;28;20163;-82
2023/08/07 01:19:57;;;;;;;4.88;2.40;;;15.00;99.90;;;;;;5044649;28;20085;-82
2023/08/07 01:22:24;;;;;;;6.28;2.50;;;15.00;99.90;;;;;;5045097;28;20499;-82
2023/08/07 01:24:51;;;;;;;5.13;2.20;;;15.00;99.90;;;;;;5029488;28;20092;-82
2023/08/07 01:27:40;;;;;;;8.55;2.33;;;15.00;99.90;;;;;;5045272;28;20038;-82
2023/08/07 01:30:18;;;;;;;3.30;2.00;;;15.00;99.90;;;;;;5045338;28;20048;-82
2023/08/07 01:33:06;;;;;;;4.85;2.33;;;15.00;99.90;;;;;;5045265;28;20053;-82
2023/08/07 01:35:39;;;;;;;5.13;1.90;;;15.00;99.90;;;;;;5029051;28;20497;-82
2023/08/07 01:38:06;;;;;;;4.85;2.08;;;15.00;99.90;;;;;;5028788;28;20048;-82
2023/08/07 01:40:34;;;;;;;6.10;1.90;;;15.00;99.90;;;;;;5045227;28;20041;-82
2023/08/07 01:43:01;;;;;;;8.77;2.33;;;15.00;99.90;;;;;;5028926;28;20038;-82
2023/08/07 01:45:29;;;;;;;8.82;1.98;;;15.00;99.90;;;;;;5044765;28;20463;-82
2023/08/07 01:47:56;;;;;;;5.90;2.22;;;15.00;99.90;;;;;;5029094;28;20041;-82
2023/08/07 01:50:23;;;;;;;5.35;2.28;;;14.90;99.90;;;;;;5028833;28;20038;-81
2023/08/07 01:52:51;;;;;;;5.80;2.25;;;14.90;99.90;;;;;;5046833;28;20474;-82
2023/08/07 01:55:19;;;;;;;4.65;2.15;;;15.00;99.90;;;;;;5048474;28;20105;-82
2023/08/07 01:57:45;;;;;;;4.88;2.20;;;14.90;99.90;;;;;;5048999;28;20128;-83
2023/08/07 02:00:12;;;;;;;7.03;2.42;;;15.00;99.90;;;;;;5048287;28;20129;-82
2023/08/07 02:02:39;;;;;;;4.97;2.10;;;14.90;99.90;;;;;;5048408;28;20048;-82
2023/08/07 02:05:06;;;;;;;3.45;2.00;;;14.90;99.90;;;;;;5048490;28;20045;-82
2023/08/07 02:07:33;;;;;;;5.20;2.00;;;14.90;99.90;;;;;;5031670;28;20052;-82
2023/08/07 02:10:00;;;;;;;6.28;2.08;;;14.90;99.90;;;;;;5065148;28;20049;-82
2023/08/07 02:12:27;;;;;;;5.07;1.90;;;14.90;99.90;;;;;;5048513;28;20038;-82
2023/08/07 02:14:54;;;;;;;5.43;2.20;;;14.90;99.90;;;;;;5032201;28;20049;-82
2023/08/07 02:17:22;;;;;;;5.00;2.40;;;14.90;99.90;;;;;;5048162;28;20033;-82
2023/08/07 02:19:49;;;;;;;6.70;2.00;;;14.80;99.90;;;;;;5048179;28;20050;-82
2023/08/07 02:22:15;;;;;;;6.43;2.05;;;14.80;99.90;;;;;;5031726;28;20045;-82
2023/08/07 02:24:42;;;;;;;3.75;2.00;;;14.80;99.90;;;;;;5048245;28;20037;-82
2023/08/07 02:27:09;;;;;;;4.45;2.20;;;14.70;99.90;;;;;;5048423;28;20038;-82
2023/08/07 02:29:36;;;;;;;5.32;2.55;;;14.70;99.90;;;;;;5048076;28;20041;-82
2023/08/07 02:32:03;;;;;;;5.82;2.30;;;14.70;99.90;;;;;;5048598;28;20034;-82
2023/08/07 02:34:30;;;;;;;4.38;2.63;;;14.70;99.90;;;;;;5031304;28;20413;-82
2023/08/07 02:36:58;;;;;;;7.18;2.40;;;14.70;99.90;;;;;;5031637;28;20379;-82
2023/08/07 02:39:25;;;;;;;7.20;2.50;;;14.60;99.90;;;;;;5031390;28;20045;-82
2023/08/07 02:41:52;;;;;;;4.35;2.28;;;14.60;99.90;;;;;;5047863;28;20070;-82
2023/08/07 02:44:19;;;;;;;6.03;2.38;;;14.60;99.90;;;;;;5030953;28;20080;-82
2023/08/07 02:46:46;;;;;;;5.35;2.40;;;14.50;99.90;;;;;;5031830;28;20278;-82
2023/08/07 02:49:13;;;;;;;10.43;2.95;;;14.50;99.90;;;;;;5048042;28;20046;-81
2023/08/07 02:51:40;;;;;;;6.18;2.45;;;14.40;99.90;;;;;;5031110;28;20053;-82
2023/08/07 02:54:07;;;;;;;4.95;2.58;;;14.40;99.90;;;;;;5047490;28;20045;-82
2023/08/07 02:56:33;;;;;;;8.52;2.28;;;14.40;99.90;;;;;;5047226;28;20759;-82
2023/08/07 02:59:01;;;;;;;7.53;2.42;;;14.30;99.90;;;;;;5031693;28;20120;-82
2023/08/07 03:01:28;;;;;;;5.70;2.38;;;14.30;99.90;;;;;;5047562;28;20495;-82
2023/08/07 03:03:55;;;;;;;6.88;2.55;;;14.20;99.90;;;;;;5030498;28;20049;-82
2023/08/07 03:06:22;;;;;;;7.07;2.47;;;14.20;99.90;;;;;;5047182;28;20495;-82
2023/08/07 03:08:49;;;;;;;9.73;2.28;;;14.20;99.90;;;;;;5031108;28;20046;-82
2023/08/07 03:11:16;;;;;;;5.35;2.42;;;14.10;99.90;;;;;;5031178;28;20041;-82
2023/08/07 03:13:44;;;;;;;6.30;2.58;;;14.10;99.90;;;;;;5030865;28;20052;-82
2023/08/07 03:16:11;;;;;;;7.22;2.50;;;14.00;99.90;;;;;;5031254;28;20077;-82
2023/08/07 03:18:37;;;;;;;9.55;2.83;;;14.10;99.90;;;;;;5047124;28;20235;-82
2023/08/07 03:21:04;;;;;;;7.13;2.63;;;14.10;99.90;;;;;;5014325;28;20050;-82
2023/08/07 03:23:31;;;;;;;5.15;2.20;;;14.10;99.90;;;;;;5030504;28;20410;-82
2023/08/07 03:26:05;;;;;;;5.40;2.50;;;14.10;99.90;;;;;;5046851;28;20041;-82
2023/08/07 03:28:32;;;;;;;9.35;2.60;;;14.10;99.90;;;;;;5030475;28;20041;-82
2023/08/07 03:30:59;;;;;;;6.65;2.55;;;14.10;99.90;;;;;;5030619;28;20413;-82
2023/08/07 03:33:26;;;;;;;6.20;2.20;;;14.10;99.90;;;;;;5014055;28;20038;-82
2023/08/07 03:35:53;;;;;;;6.32;2.35;;;14.10;99.90;;;;;;5030459;28;20042;-82
2023/08/07 03:38:19;;;;;;;7.32;2.55;;;14.10;99.90;;;;;;5030434;28;20041;-82
2023/08/07 03:40:46;;;;;;;5.80;2.33;;;14.10;99.90;;;;;;5029932;28;20041;-82
2023/08/07 03:43:13;;;;;;;8.27;2.40;;;14.10;99.90;;;;;;5030276;28;20041;-82
2023/08/07 03:45:40;;;;;;;6.10;2.33;;;14.10;99.90;;;;;;5029928;28;20077;-82
2023/08/07 03:48:07;;;;;;;5.45;2.53;;;14.20;99.90;;;;;;5030081;28;20502;-82
2023/08/07 03:50:36;;;;;;;4.25;2.00;;;14.10;99.90;;;;;;5013475;28;20057;-82
2023/08/07 03:53:06;;;;;;;9.68;2.72;;;14.20;99.90;;;;;;5013709;28;20498;-82
2023/08/07 03:55:34;;;;;;;8.70;2.53;;;14.20;99.90;;;;;;5029482;28;20107;-82
2023/08/07 03:58:01;;;;;;;8.68;2.17;;;14.20;99.90;;;;;;5029925;28;20088;-82
2023/08/07 04:00:28;;;;;;;4.80;2.00;;;14.20;99.90;;;;;;5013242;28;20387;-82
2023/08/07 04:02:55;;;;;;;4.88;2.05;;;14.20;99.90;;;;;;5029604;28;20088;-81
2023/08/07 04:05:21;;;;;;;8.50;2.33;;;14.30;99.90;;;;;;5030064;28;20042;-82
2023/08/07 04:07:48;;;;;;;6.72;2.65;;;14.20;99.90;;;;;;5029405;28;20053;-81
2023/08/07 04:10:15;;;;;;;7.15;2.58;;;14.20;99.90;;;;;;5014070;28;20052;-82
2023/08/07 04:12:47;;;;;;;6.93;2.47;;;14.30;99.90;;;;;;5046429;28;20053;-82
2023/08/07 04:15:14;;;;;;;6.60;2.28;;;14.20;99.90;;;;;;5012732;28;20041;-81
2023/08/07 04:17:41;;;;;;;6.38;2.38;;;14.20;99.90;;;;;;5013316;28;20400;-82
2023/08/07 04:20:08;;;;;;;6.20;2.30;;;14.20;99.90;;;;;;5036465;28;20057;-82
2023/08/07 04:22:35;;;;;;;8.25;2.20;;;14.20;99.90;;;;;;5013182;28;20042;-82
2023/08/07 04:25:02;;;;;;;12.02;2.60;;;14.20;99.90;;;;;;5029932;28;20052;-82
2023/08/07 04:27:29;;;;;;;4.80;2.13;;;14.20;99.90;;;;;;5013145;28;20129;-82
2023/08/07 04:29:55;;;;;;;6.60;2.50;;;14.20;99.90;;;;;;5029245;28;20541;-82
2023/08/07 04:32:22;;;;;;;6.72;1.80;;;14.20;99.90;;;;;;5013450;28;20388;-82
2023/08/07 04:34:49;;;;;;;7.55;2.10;;;14.30;99.90;;;;;;5013111;28;20038;-82
2023/08/07 04:37:15;;;;;;;6.43;2.40;;;14.30;99.90;;;;;;5029378;28;20124;-81
2023/08/07 04:39:42;;;;;;;5.53;1.73;;;14.30;99.90;;;;;;5029572;28;20574;-82
2023/08/07 04:42:09;;;;;;;8.23;2.20;;;14.30;99.90;;;;;;5045953;28;20037;-82
2023/08/07 04:44:36;;;;;;;7.68;2.15;;;14.40;99.90;;;;;;5013073;28;20037;-82
2023/08/07 04:47:03;;;;;;;6.18;2.20;;;14.40;99.90;;;;;;5013070;28;20048;-81
2023/08/07 04:49:29;;;;;;;6.30;1.88;;;14.40;99.90;;;;;;5045470;28;20176;-82
2023/08/07 04:51:56;;;;;;;8.55;2.15;;;14.40;99.90;;;;;;5013074;28;20034;-81
2023/08/07 04:54:23;;;;;;;7.40;2.08;;;14.40;99.90;;;;;;5012984;28;20477;-82
2023/08/07 04:56:49;;;;;;;15.35;2.60;;;14.50;99.90;;;;;;5012906;28;20038;-82
2023/08/07 04:59:16;;;;;;;9.85;2.38;;;14.50;99.90;;;;;;5029160;28;20573;-82
2023/08/07 05:01:43;;;;;;;7.50;2.40;;;14.50;99.90;;;;;;5028843;28;20517;-82
2023/08/07 05:04:09;;;;;;;9.02;2.40;;;14.40;99.90;;;;;;5013173;28;20041;-82
2023/08/07 05:06:36;;;;;;;11.70;2.60;;;14.50;99.90;;;;;;5012818;28;20041;-82
2023/08/07 05:09:03;;;;;;;9.52;2.25;;;14.50;99.90;;;;;;5012989;28;20045;-82
2023/08/07 05:11:30;;;;;;;10.02;2.55;;;14.50;99.90;;;;;;5013096;28;20513;-82
2023/08/07 05:13:56;;;;;;;10.27;2.67;;;14.60;99.90;;;;;;5012675;28;20045;-82
2023/08/07 05:16:23;;;;;;;12.45;2.90;;;14.60;99.90;;;;;;5029262;28;20054;-82
2023/08/07 05:18:50;;;;;;;9.68;2.58;;;14.60;99.90;;;;;;5012473;28;20038;-82
2023/08/07 05:21:17;;;;;;;13.40;3.00;;;14.60;99.90;;;;;;5028874;28;20083;-82
2023/08/07 05:23:44;;;;;;;13.43;3.03;;;14.60;99.90;;;;;;5012647;28;20046;-81
2023/08/07 05:26:10;;;;;;;13.15;2.72;;;14.70;99.90;;;;;;5013888;28;20051;-82
2023/08/07 05:28:37;;;;;;;12.85;3.55;;;14.70;99.90;;;;;;5048792;28;20045;-82
2023/08/07 05:31:04;;;;;;;12.07;3.00;;;14.70;99.90;;;;;;5016699;28;20498;-81
2023/08/07 05:33:31;;;;;;;13.27;3.30;;;14.80;99.90;;;;;;5016472;28;20046;-82
2023/08/07 05:35:57;;;;;;;11.57;2.40;;;14.80;99.90;;;;;;5032349;28;20375;-82
2023/08/07 05:38:24;;;;;;;9.65;2.33;;;14.80;99.90;;;;;;5016827;28;20450;-82
2023/08/07 05:40:51;;;;;;;12.90;3.03;;;14.90;99.90;;;;;;5016092;28;20049;-82
2023/08/07 05:43:17;;;;;;;10.07;2.47;;;14.80;99.90;;;;;;5016324;28;20038;-82
2023/08/07 05:45:46;;;;;;;11.95;2.42;;;14.90;99.90;;;;;;5016155;28;20049;-82
2023/08/07 05:48:12;;;;;;;12.93;2.35;;;14.90;99.90;;;;;;5048744;28;20522;-82
2023/08/07 05:50:39;;;;;;;11.13;2.67;;;15.00;99.90;;;;;;5032079;28;20065;-82
2023/08/07 05:53:06;;;;;;;12.55;2.53;;;15.00;99.90;;;;;;5016552;28;20124;-82
2023/08/07 05:55:34;;;;;;;13.93;2.60;;;15.00;99.90;;;;;;5032355;28;20081;-82
2023/08/07 05:58:00;;;;;;;12.70;2.65;;;15.00;99.90;;;;;;5032130;28;20046;-82
2023/08/07 06:00:28;;;;;;;10.90;2.45;;;15.10;99.90;;;;;;5016213;28;20049;-82
2023/08/07 06:02:54;;;;;;;10.10;2.63;;;15.10;99.90;;;;;;5032146;28;20042;-82
2023/08/07 06:05:21;;;;;;;13.48;3.03;;;15.10;99.90;;;;;;5015996;28;20060;-82
2023/08/07 06:07:48;;;;;;;12.52;2.63;;;15.10;99.90;;;;;;5016075;28;20048;-82
2023/08/07 06:10:15;;;;;;;15.93;3.28;;;15.10;99.90;;;;;;5015875;28;20087;-82
2023/08/07 06:12:42;;;;;;;14.38;2.85;;;15.10;99.90;;;;;;5015710;28;20482;-82
2023/08/07 06:15:09;;;;;;;10.70;2.58;;;15.10;99.90;;;;;;5016104;28;20077;-82
2023/08/07 06:17:35;;;;;;;11.23;2.95;;;15.10;99.90;;;;;;5048178;28;20045;-82
2023/08/07 06:20:04;;;;;;;12.60;2.70;;;15.10;99.90;;;;;;5015372;28;20057;-82
2023/08/07 06:22:32;;;;;;;12.80;3.53;;;15.20;99.90;;;;;;5016091;28;20513;-82
2023/08/07 06:24:59;;;;;;;12.90;3.47;;;15.30;99.90;;;;;;5015608;28;20046;-82
2023/08/07 06:27:25;;;;;;;16.13;2.90;;;15.30;99.90;;;;;;5015629;28;20048;-82
2023/08/07 06:29:52;;;;;;;10.02;2.97;;;15.30;99.90;;;;;;5015356;28;20041;-82
2023/08/07 06:32:19;;;;;;;8.90;2.83;;;15.20;99.90;;;;;;5031859;28;20092;-82
2023/08/07 06:34:46;;;;;;;7.70;2.38;;;15.10;99.90;;;;;;5015422;28;20421;-82
2023/08/07 06:37:13;;;;;;;7.78;2.17;;;15.00;99.90;;;;;;5015277;28;20088;-82
2023/08/07 06:39:39;;;;;;;10.57;2.60;;;15.00;99.90;;;;;;5014970;28;20048;-82
2023/08/07 06:42:06;;;;;;;7.38;2.13;;;15.10;99.90;;;;;;5031112;28;20042;-82
2023/08/07 06:44:33;;;;;;;7.82;2.65;;;15.10;99.90;;;;;;5031351;28;20487;-82
2023/08/07 06:47:00;;;;;;;11.52;2.72;;;15.10;99.90;;;;;;5015158;28;20038;-82
2023/08/07 06:49:27;;;;;;;10.73;2.35;;;15.10;99.90;;;;;;5015364;28;20065;-82
2023/08/07 06:51:53;;;;;;;12.73;3.00;;;15.10;99.90;;;;;;5031003;28;20218;-82
2023/08/07 06:54:20;;;;;;;13.32;2.60;;;15.00;99.90;;;;;;5015270;28;20490;-82
2023/08/07 06:56:47;;;;;;;14.63;2.90;;;15.10;99.90;;;;;;5014769;28;20046;-82
2023/08/07 06:59:13;;;;;;;9.70;2.28;;;15.10;99.90;;;;;;5015211;28;20080;-82
2023/08/07 07:01:40;;;;;;;9.60;2.50;;;15.20;99.90;;;;;;5015180;28;20041;-82
2023/08/07 07:04:07;;;;;;;10.07;2.83;;;15.30;99.90;;;;;;5014518;28;20038;-82
2023/08/07 07:06:34;;;;;;;11.75;2.15;;;15.40;99.90;;;;;;5014697;28;20049;-82
2023/08/07 07:09:00;;;;;;;11.52;2.40;;;15.50;99.90;;;;;;5030468;28;20045;-82
2023/08/07 07:11:27;;;;;;;12.68;2.42;;;15.50;99.90;;;;;;5015111;28;20046;-82
2023/08/07 07:13:54;;;;;;;11.80;2.78;;;15.60;99.90;;;;;;5014362;28;20406;-82
2023/08/07 07:16:21;;;;;;;13.88;2.67;;;15.50;99.90;;;;;;5014706;28;20571;-82
2023/08/07 07:18:50;;;;;;;12.63;2.10;;;15.50;99.90;;;;;;5030862;28;20410;-82
2023/08/07 07:21:17;;;;;;;8.30;2.00;;;15.50;99.90;;;;;;5030677;28;20089;-82
2023/08/07 07:23:44;;;;;;;10.35;2.33;;;15.50;99.90;;;;;;5047119;28;20044;-82
2023/08/07 07:26:10;;;;;;;9.55;2.42;;;15.50;99.90;;;;;;5030550;28;20480;-82
2023/08/07 07:28:37;;;;;;;11.73;2.72;;;15.60;99.90;;;;;;5047187;28;20041;-82
2023/08/07 07:31:04;;;;;;;13.43;2.42;;;15.50;99.90;;;;;;5046900;28;20049;-82
2023/08/07 07:33:31;;;;;;;11.32;2.53;;;15.40;99.90;;;;;;5031056;28;20038;-82
2023/08/07 07:35:58;;;;;;;9.70;2.30;;;15.40;99.90;;;;;;5046892;28;20581;-82
2023/08/07 07:38:26;;;;;;;11.00;2.25;;;15.20;99.90;;;;;;5030772;28;20120;-82
2023/08/07 07:40:56;;;;;;;6.60;2.35;;;15.20;99.90;;;;;;5030634;28;20088;-82
2023/08/07 07:43:23;;;;;;;9.25;2.30;;;15.20;99.90;;;;;;5046923;28;20091;-82
2023/08/07 07:45:50;;;;;;;9.27;2.33;;;15.30;99.90;;;;;;5047124;28;20053;-82
2023/08/07 07:48:16;;;;;;;11.70;2.60;;;15.50;99.90;;;;;;5046611;28;20044;-82
2023/08/07 07:50:43;;;;;;;11.65;2.22;;;15.60;99.90;;;;;;5030661;28;20533;-82
2023/08/07 07:53:10;;;;;;;13.32;2.55;;;15.70;99.90;;;;;;5030237;28;20073;-82
2023/08/07 07:55:37;;;;;;;8.75;2.22;;;15.60;99.90;;;;;;5046308;28;20107;-82
2023/08/07 07:58:04;;;;;;;8.32;2.22;;;15.50;99.90;;;;;;5046516;28;20056;-82
2023/08/07 08:00:31;;;;;;;9.05;2.33;;;15.60;99.90;;;;;;5030371;28;20483;-82
2023/08/07 08:02:59;;;;;;;8.98;2.42;;;15.70;99.90;;;;;;5030188;28;20041;-82
2023/08/07 08:05:26;;;;;;;9.90;1.95;;;15.70;99.90;;;;;;5046677;28;20056;-82
2023/08/07 08:07:52;;;;;;;8.85;2.00;;;16.00;99.90;;;;;;5030205;28;20034;-82
2023/08/07 08:10:19;;;;;;;10.57;2.10;;;16.00;99.90;;;;;;5029732;28;20049;-82
2023/08/07 08:12:46;;;;;;;15.73;2.22;;;16.10;99.90;;;;;;5030108;28;20137;-82
2023/08/07 08:15:12;;;;;;;9.02;2.40;;;16.20;99.90;;;;;;5029541;28;20509;-83
2023/08/07 08:17:39;;;;;;;6.50;2.20;;;16.30;99.90;;;;;;5030026;28;20524;-82
2023/08/07 08:20:07;;;;;;;9.18;2.47;;;16.20;99.90;;;;;;5045409;28;20050;-82
2023/08/07 08:22:34;;;;;;;12.23;2.15;;;16.20;99.90;;;;;;5029914;28;20560;-82
2023/08/07 08:25:06;;;;;;;10.15;2.15;;;16.40;99.90;;;;;;5029550;28;20103;-82
2023/08/07 08:27:36;;;;;;;12.30;2.30;;;16.40;99.90;;;;;;5029770;28;20461;-83
2023/08/07 08:30:03;;;;;;;10.98;2.15;;;16.30;99.90;;;;;;5045654;28;20089;-82
2023/08/07 08:32:30;;;;;;;6.35;1.90;;;16.40;99.90;;;;;;5046573;28;20128;-82
2023/08/07 08:34:57;;;;;;;10.10;2.97;;;16.30;99.90;;;;;;5030018;28;20466;-83
2023/08/07 08:37:24;;;;;;;13.70;2.30;;;16.30;99.90;;;;;;5029183;28;20134;-82
2023/08/07 08:39:51;;;;;;;7.57;1.80;;;16.40;99.90;;;;;;5029457;28;20042;-82
2023/08/07 08:42:17;;;;;;;9.15;2.00;;;16.40;99.90;;;;;;5013123;28;20120;-82
2023/08/07 08:44:55;;;;;;;13.73;2.35;;;16.30;99.90;;;;;;5029602;28;20049;-82
2023/08/07 08:47:24;;;;;;;9.25;2.17;;;16.50;99.90;;;;;;5029553;28;20042;-82
2023/08/07 08:49:58;;;;;;;10.52;1.92;;;16.50;99.90;;;;;;5029327;28;20482;-82
2023/08/07 08:52:26;;;;;;;9.00;2.17;;;16.60;99.90;;;;;;5029413;28;20053;-82
2023/08/07 08:54:56;;;;;;;10.40;2.10;;;16.70;99.90;;;;;;5029643;28;20030;-83
2023/08/07 08:57:26;;;;;;;10.50;2.63;;;16.80;99.90;;;;;;5029637;28;20525;-83
2023/08/07 08:59:53;;;;;;;9.93;2.20;;;17.00;99.90;;;;;;5029728;28;20042;-83
2023/08/07 09:02:20;;;;;;;6.97;2.05;;;17.00;99.90;;;;;;5034389;28;20045;-83
2023/08/07 09:04:47;;;;;;;13.32;2.55;;;17.00;99.90;;;;;;5036217;28;20729;-83
2023/08/07 09:07:15;;;;;;;8.88;2.15;;;16.90;99.90;;;;;;5035585;28;20165;-83
2023/08/07 09:09:43;;;;;;;8.27;2.33;;;16.90;99.90;;;;;;5052345;28;20195;-83
2023/08/07 09:12:16;;;;;;;10.73;2.60;;;17.00;99.90;;;;;;5051773;28;20033;-83
2023/08/07 09:14:44;;;;;;;13.65;2.42;;;17.10;99.90;;;;;;5035683;28;20128;-83
2023/08/07 09:17:15;;;;;;;11.40;2.33;;;17.20;99.90;;;;;;5036134;28;20524;-82
2023/08/07 09:19:43;;;;;;;9.98;2.08;;;16.90;99.90;;;;;;5050219;28;20502;-83
2023/08/07 09:22:10;;;;;;;13.50;2.60;;;16.80;99.90;;;;;;5019577;28;20103;-83
2023/08/07 09:24:38;;;;;;;12.80;2.20;;;17.00;99.90;;;;;;5003812;28;20046;-82
2023/08/07 09:27:07;;;;;;;9.48;2.22;;;17.20;99.90;;;;;;5003316;28;20486;-83
2023/08/07 09:29:34;;;;;;;7.93;2.05;;;17.30;99.90;;;;;;5035542;28;20046;-83
2023/08/07 09:32:12;;;;;;;11.90;2.15;;;17.20;99.90;;;;;;5035258;28;20095;-83
2023/08/07 09:34:42;;;;;;;12.13;2.42;;;17.10;99.90;;;;;;5035874;28;20044;-83
2023/08/07 09:37:09;;;;;;;12.73;2.58;;;16.80;99.90;;;;;;5034922;28;20041;-82
2023/08/07 09:39:37;;;;;;;9.35;2.28;;;16.60;99.90;;;;;;5035459;28;20069;-83
2023/08/07 09:42:07;;;;;;;13.40;2.65;;;16.30;99.90;;;;;;5035409;28;20053;-83
2023/08/07 09:44:37;;;;;;;10.15;2.17;;;16.20;99.90;;;;;;5035131;28;20073;-83
2023/08/07 09:47:15;;;;;;;10.00;2.10;;;16.30;99.90;;;;;;5035645;28;20037;-83
2023/08/07 09:49:43;;;;;;;10.05;2.42;;;16.20;99.90;;;;;;5035340;28;20050;-82
2023/08/07 09:52:13;;;;;;;10.00;2.35;;;16.20;99.90;;;;;;5035000;28;20125;-82
2023/08/07 09:54:42;;;;;;;8.68;2.20;;;16.20;99.90;;;;;;5035256;28;20060;-82
2023/08/07 09:57:09;;;;;;;9.63;2.45;;;16.30;99.90;;;;;;5035357;28;20041;-83
2023/08/07 09:59:36;;;;;;;9.30;2.20;;;16.60;99.90;;;;;;5035604;28;20044;-83
2023/08/07 10:02:04;;;;;;;9.90;2.58;;;16.90;99.90;;;;;;5035298;28;20038;-82
2023/08/07 10:04:31;;;;;;;10.60;2.50;;;17.00;99.90;;;;;;5019090;28;20111;-83
2023/08/07 10:06:59;;;;;;;10.73;2.05;;;17.00;99.90;;;;;;5035327;28;20042;-83
2023/08/07 10:09:27;;;;;;;8.15;2.10;;;17.10;99.90;;;;;;5035131;28;20123;-82
2023/08/07 10:11:54;;;;;;;8.52;1.90;;;17.30;99.90;;;;;;5035151;28;20038;-83
2023/08/07 10:14:22;;;;;;;9.68;1.73;;;17.60;99.90;;;;;;5030778;28;20505;-83
2023/08/07 10:16:49;;;;;;;7.90;2.28;;;17.90;99.90;;;;;;5032107;28;20148;-83
2023/08/07 10:19:16;;;;;;;8.60;2.10;;;18.10;99.90;;;;;;5033116;28;20506;-82
2023/08/07 10:21:44;;;;;;;5.68;1.65;;;18.10;99.90;;;;;;5035658;28;20110;-83
2023/08/07 10:24:12;;;;;;;7.72;1.80;;;17.90;99.90;;;;;;5035965;28;20056;-83
2023/08/07 10:26:44;;;;;;;4.85;1.80;;;17.70;99.90;;;;;;5035190;28;20080;-83
2023/08/07 10:29:16;;;;;;;8.95;1.90;;;17.50;99.90;;;;;;5019399;28;20045;-83
2023/08/07 10:31:44;;;;;;;11.00;1.88;;;17.50;99.90;;;;;;5051919;28;20092;-83
2023/08/07 10:34:11;;;;;;;8.85;2.10;;;17.30;99.90;;;;;;5019218;28;20128;-83
2023/08/07 10:36:40;;;;;;;7.90;1.83;;;17.20;99.90;;;;;;5034840;28;20479;-83
2023/08/07 10:39:16;;;;;;;7.57;1.83;;;17.20;99.90;;;;;;5019575;28;20041;-83
2023/08/07 10:41:46;;;;;;;5.00;1.75;;;17.20;99.90;;;;;;5019717;28;20049;-83
2023/08/07 10:44:20;;;;;;;8.38;1.92;;;17.40;99.90;;;;;;5019312;28;20049;-83
2023/08/07 10:46:56;;;;;;;8.68;2.13;;;17.30;99.90;;;;;;5035081;28;20128;-83
2023/08/07 10:49:37;;;;;;;9.63;2.35;;;17.40;99.90;;;;;;5034968;28;20560;-83
2023/08/07 10:52:16;;;;;;;9.48;2.00;;;17.20;99.90;;;;;;5018533;28;20755;-83
2023/08/07 10:54:50;;;;;;;9.98;1.80;;;17.30;99.90;;;;;;5050854;28;20041;-83
2023/08/07 10:57:18;;;;;;;9.55;2.00;;;17.30;99.90;;;;;;5018710;28;20041;-83
2023/08/07 10:59:55;;;;;;;13.80;2.70;;;17.20;99.90;;;;;;5050776;28;20042;-83
2023/08/07 11:02:26;;;;;;;7.45;1.70;;;17.20;99.90;;;;;;5067233;28;20084;-83
2023/08/07 11:04:53;;;;;;;10.50;2.58;;;17.20;99.90;;;;;;5018717;28;20042;-83
2023/08/07 11:07:26;;;;;;;8.38;2.25;;;17.10;99.90;;;;;;5018377;28;20052;-83
2023/08/07 11:09:53;;;;;;;11.10;2.40;;;17.00;99.90;;;;;;5050658;28;20052;-83
2023/08/07 11:12:20;;;;;;;10.30;2.60;;;16.90;99.90;;;;;;5018470;28;20041;-83
2023/08/07 11:14:47;;;;;;;12.15;2.30;;;16.90;99.90;;;;;;5034682;28;20037;-83
2023/08/07 11:17:14;;;;;;;13.30;2.40;;;17.00;99.90;;;;;;5034337;28;20041;-83
2023/08/07 11:19:41;;;;;;;9.98;2.55;;;17.30;99.90;;;;;;5014313;28;20058;-83
2023/08/07 11:22:08;;;;;;;6.60;2.10;;;17.50;99.90;;;;;;5014910;28;20042;-83
2023/08/07 11:24:35;;;;;;;10.05;2.13;;;17.60;99.90;;;;;;5030664;28;20550;-83
2023/08/07 11:27:02;;;;;;;9.43;2.05;;;18.00;99.90;;;;;;5015057;28;20124;-83
2023/08/07 11:29:30;;;;;;;6.13;1.70;;;18.30;99.90;;;;;;5014380;28;20108;-84
2023/08/07 11:31:57;;;;;;;6.45;1.60;;;18.30;99.90;;;;;;5030866;28;20470;-84
2023/08/07 11:34:25;;;;;;;7.35;1.83;;;18.40;99.90;;;;;;5014270;28;20121;-83
2023/08/07 11:36:54;;;;;;;4.28;1.45;;;18.50;99.90;;;;;;5013853;28;20052;-83
2023/08/07 11:39:21;;;;;;;4.57;1.30;;;18.50;99.90;;;;;;5014821;28;20037;-83
2023/08/07 11:41:52;;;;;;;6.55;1.60;;;18.60;99.90;;;;;;5030216;28;20513;-83
2023/08/07 11:44:19;;;;;;;7.22;1.63;;;18.60;99.90;;;;;;5030998;28;20045;-84
2023/08/07 11:46:46;;;;;;;6.35;1.80;;;18.20;99.90;;;;;;5014423;28;20042;-83
2023/08/07 11:49:13;;;;;;;11.05;1.95;;;18.00;99.90;;;;;;5030657;28;20132;-84
2023/08/07 11:51:40;;;;;;;8.48;1.75;;;17.70;99.90;;;;;;5029951;28;20042;-83
2023/08/07 11:54:07;;;;;;;6.65;1.83;;;17.60;99.90;;;;;;5014453;28;20414;-83
2023/08/07 11:56:34;;;;;;;8.35;2.30;;;17.70;99.90;;;;;;5029793;28;20042;-83
2023/08/07 11:59:03;;;;;;;10.88;2.28;;;17.70;99.90;;;;;;5014548;28;20065;-83
2023/08/07 12:01:29;;;;;;;7.93;2.25;;;17.80;99.90;;;;;;5029930;28;20045;-83
2023/08/07 12:04:08;;;;;;;15.20;2.03;;;17.90;99.90;;;;;;5013945;28;20069;-83
2023/08/07 12:06:36;;;;;;;5.72;1.98;;;17.70;99.90;;;;;;5014022;28;20049;-83
2023/08/07 12:09:03;;;;;;;9.38;2.03;;;17.90;99.90;;;;;;5014264;28;20045;-83
2023/08/07 12:11:30;;;;;;;7.15;1.85;;;17.80;99.90;;;;;;5029756;28;20050;-83
2023/08/07 12:14:00;;;;;;;4.93;1.90;;;17.90;99.90;;;;;;5029983;28;20050;-83
2023/08/07 12:16:32;;;;;;;10.52;1.90;;;17.80;99.90;;;;;;5029904;28;20049;-83
2023/08/07 12:18:59;;;;;;;11.02;2.08;;;17.80;99.90;;;;;;5030049;28;20049;-83
2023/08/07 12:21:27;;;;;;;4.80;1.60;;;17.90;99.90;;;;;;5029530;28;20057;-84
2023/08/07 12:23:58;;;;;;;8.07;1.75;;;17.90;99.90;;;;;;5045825;28;20049;-83
2023/08/07 12:26:25;;;;;;;6.38;1.40;;;17.90;99.90;;;;;;5029833;28;20049;-83
2023/08/07 12:28:53;;;;;;;6.63;1.50;;;18.00;99.90;;;;;;5029444;28;20491;-83
2023/08/07 12:31:20;;;;;;;4.50;1.50;;;18.20;99.90;;;;;;5029899;28;20037;-83
2023/08/07 12:33:46;;;;;;;5.50;1.48;;;18.30;99.90;;;;;;5029481;28;20046;-84
2023/08/07 12:36:14;;;;;;;7.85;1.52;;;18.30;99.90;;;;;;5045370;28;20438;-84
2023/08/07 12:38:43;;;;;;;6.65;1.60;;;17.80;99.90;;;;;;5045650;28;20056;-83
2023/08/07 12:41:10;;;;;;;5.95;1.65;;;17.70;99.90;;;;;;5045834;28;20049;-84
2023/08/07 12:43:40;;;;;;;4.32;1.60;;;17.60;99.90;;;;;;5029496;28;20037;-83
2023/08/07 12:46:07;;;;;;;6.88;1.60;;;17.40;99.90;;;;;;5046257;28;20092;-84